Aviation Digital Data Service (ADDS)

Output produced by METARs form (1731 UTC 30 October 2020)
found at http://www.aviationweather.gov/metar/data/
 
KBHM 301717Z 35010KT 10SM SCT028 14/06 A3023 RMK AO2 T01390056
KBHM 301653Z 01011G19KT 10SM BKN024 13/06 A3024 RMK AO2 SLP238 T01330056
KBHM 301120Z 3012/3112 34010KT P6SM OVC020 
     FM301400 34008KT P6SM BKN040 
     FM301700 36011KT P6SM FEW250 
     FM310000 02005KT P6SM SKC